logo
Search for airport 
image banner adimage banner adimage banner ad
image banner ad

YTUN - Tunbridge Airport

Located in Tunbridge, Australia

ICAO - YTUN, IATA -

Data provided by Airmate  

General information

Coordinates: S42°6'48" E147°21'53"
Elevation is 745 feet MSL.
Magnetic variation is 15° East
View others Airports in Tasmania

Operational data

Special qualification required
Current time UTC:
Current local time:
Weather at : YMLT - Launceston ( 64 km )
METAR: YMLT 140500Z AUTO 34018KT 9999 // NCD 20/13 Q1017 RF00.0/000.2
TAF: TAF AMD YMLT 140506Z 1406/1506 33012KT 9999 SCT040 FM140900 33008KT CAVOK FM150200 29014KT CAVOK PROB40 1415/1422 0200 FG
View NOTAMs / SUP AIP / TFR affecting this airport [VIEW]
Communications frequencies: [VIEW]

Runways:

RWY identifierQFULength (ft)Width (ft)SurfaceLDA (ft)
31325°3493133DIRT
13145°3493133DIRT

Airport contact information

Address: Tunbridge Australia

Satellite view of YTUN